This is the latest recevied weather packets stored in our database for station/object KQ7A. If no packets are shown the sender has not sent any weather packets the latest 10 day(s).
| Time | Temp. | Humidity | Pressure | Rain* | Wind** | Luminosity | Snow |
|---|---|---|---|---|---|---|---|
| 1777614086 | 8.33° C | 55% | 1019.2 hPa | 0 mm | - | 0 W/m² | - |
| 1777613781 | 8.89° C | 55% | 1018.9 hPa | 0 mm | - | 0 W/m² | - |
| 1777613479 | 8.89° C | 53% | 1018.5 hPa | 0 mm | - | 0 W/m² | - |
| 1777613174 | 9.44° C | 46% | 1018.8 hPa | 0 mm | - | 0 W/m² | - |
| 1777612871 | 10° C | 46% | 1018.6 hPa | 0 mm | - | 0 W/m² | - |
| 1777612567 | 10° C | 44% | 1018.6 hPa | 0 mm | - | 0 W/m² | - |
| 1777612263 | 10.56° C | 41% | 1018.9 hPa | 0 mm | - | 0 W/m² | - |
| 1777611958 | 10.56° C | 40% | 1018.6 hPa | 0 mm | - | 0 W/m² | - |
| 1777611654 | 11.11° C | 38% | 1018.6 hPa | 0 mm | - | 0 W/m² | - |
| 1777611350 | 10.56° C | 45% | 1018.8 hPa | 0 mm | - | 0 W/m² | - |
| 1777611048 | 10.56° C | 43% | 1018.6 hPa | 0 mm | - | 0 W/m² | - |
| 1777610743 | 10.56° C | 45% | 1018.6 hPa | 0 mm | - | 0 W/m² | - |
| 1777610442 | 11.11° C | 43% | 1018.4 hPa | 0 mm | - | 0 W/m² | - |
| 1777610133 | 11.67° C | 44% | 1018.2 hPa | 0 mm | - | 0 W/m² | - |
| 1777609830 | 12.22° C | 35% | 1018.3 hPa | 0 mm | - | 0 W/m² | - |
| 1777609527 | 12.22° C | 36% | 1018.2 hPa | 0 mm | - | 0 W/m² | - |
| 1777609224 | 12.22° C | 37% | 1018.2 hPa | 0 mm | - | 0 W/m² | - |
| 1777608922 | 12.22° C | 34% | 1017.8 hPa | 0 mm | - | 0 W/m² | - |
| 1777608618 | 11.67° C | 39% | 1017.9 hPa | 0 mm | - | 0 W/m² | - |
| 1777608315 | 11.67° C | 41% | 1018.1 hPa | 0 mm | - | 0 W/m² | - |
| 1777608014 | 11.67° C | 39% | 1017.7 hPa | 0 mm | - | 0 W/m² | - |
| 1777607709 | 11.67° C | 42% | 1017.8 hPa | 0 mm | - | 0 W/m² | - |
| 1777607405 | 11.67° C | 42% | 1017.6 hPa | 0 mm | - | 0 W/m² | - |
| 1777607102 | 11.67° C | 45% | 1017.6 hPa | 0 mm | - | 0 W/m² | - |
| 1777606797 | 11.67° C | 42% | 1017.3 hPa | 0 mm | - | 0 W/m² | - |
* Rain latest hour (hover to see other rain measurements)
** Current wind speed in m/s (hover to see current wind gust speed)